sensor_id;sensor_type;location;lat;lon;timestamp;temperature;humidity
19930;DHT22;10127;47.780;9.606;2022-12-13T00:02:13;-4.60;99.90
19930;DHT22;10127;47.780;9.606;2022-12-13T00:04:38;-4.60;99.90
19930;DHT22;10127;47.780;9.606;2022-12-13T00:07:04;-4.60;99.90
19930;DHT22;10127;47.780;9.606;2022-12-13T00:09:30;-4.70;99.90
19930;DHT22;10127;47.780;9.606;2022-12-13T00:11:55;-4.60;99.90
19930;DHT22;10127;47.780;9.606;2022-12-13T00:14:21;-4.70;99.90
19930;DHT22;10127;47.780;9.606;2022-12-13T00:16:47;-4.70;99.90
19930;DHT22;10127;47.780;9.606;2022-12-13T00:19:13;-4.80;99.90
19930;DHT22;10127;47.780;9.606;2022-12-13T00:21:39;-4.80;99.90
19930;DHT22;10127;47.780;9.606;2022-12-13T00:24:06;-4.70;99.90
19930;DHT22;10127;47.780;9.606;2022-12-13T00:26:32;-4.60;99.90
19930;DHT22;10127;47.780;9.606;2022-12-13T00:29:00;-4.70;99.90
19930;DHT22;10127;47.780;9.606;2022-12-13T00:31:26;-4.60;99.90
19930;DHT22;10127;47.780;9.606;2022-12-13T00:33:52;-4.70;99.90
19930;DHT22;10127;47.780;9.606;2022-12-13T00:36:17;-4.70;99.90
19930;DHT22;10127;47.780;9.606;2022-12-13T00:38:43;-4.80;99.90
19930;DHT22;10127;47.780;9.606;2022-12-13T00:41:11;-4.80;99.90
19930;DHT22;10127;47.780;9.606;2022-12-13T00:43:37;-4.80;99.90
19930;DHT22;10127;47.780;9.606;2022-12-13T00:46:03;-4.60;99.90
19930;DHT22;10127;47.780;9.606;2022-12-13T00:48:28;-4.70;99.90
19930;DHT22;10127;47.780;9.606;2022-12-13T00:50:54;-4.70;99.90
19930;DHT22;10127;47.780;9.606;2022-12-13T00:53:20;-4.60;99.90
19930;DHT22;10127;47.780;9.606;2022-12-13T00:55:45;-4.50;99.90
19930;DHT22;10127;47.780;9.606;2022-12-13T00:58:11;-4.60;99.90
19930;DHT22;10127;47.780;9.606;2022-12-13T01:00:36;-4.70;99.90
19930;DHT22;10127;47.780;9.606;2022-12-13T01:03:02;-4.70;99.90
19930;DHT22;10127;47.780;9.606;2022-12-13T01:05:48;-4.80;99.90
19930;DHT22;10127;47.780;9.606;2022-12-13T01:08:14;-4.80;99.90
19930;DHT22;10127;47.780;9.606;2022-12-13T01:10:46;-4.80;99.90
19930;DHT22;10127;47.780;9.606;2022-12-13T01:13:13;-4.90;99.90
19930;DHT22;10127;47.780;9.606;2022-12-13T01:15:43;-4.90;99.90
19930;DHT22;10127;47.780;9.606;2022-12-13T01:18:09;-4.90;99.90
19930;DHT22;10127;47.780;9.606;2022-12-13T01:20:36;-5.00;99.90
19930;DHT22;10127;47.780;9.606;2022-12-13T01:23:01;-4.90;99.90
19930;DHT22;10127;47.780;9.606;2022-12-13T01:25:27;-4.80;99.90
19930;DHT22;10127;47.780;9.606;2022-12-13T01:27:53;-4.90;99.90
19930;DHT22;10127;47.780;9.606;2022-12-13T01:30:18;-5.00;99.90
19930;DHT22;10127;47.780;9.606;2022-12-13T01:32:44;-4.90;99.90
19930;DHT22;10127;47.780;9.606;2022-12-13T01:35:10;-4.90;99.90
19930;DHT22;10127;47.780;9.606;2022-12-13T01:37:35;-5.00;99.90
19930;DHT22;10127;47.780;9.606;2022-12-13T01:40:02;-5.10;99.90
19930;DHT22;10127;47.780;9.606;2022-12-13T01:42:28;-5.00;99.90
19930;DHT22;10127;47.780;9.606;2022-12-13T01:45:07;-4.90;99.90
19930;DHT22;10127;47.780;9.606;2022-12-13T01:47:46;-5.10;99.90
19930;DHT22;10127;47.780;9.606;2022-12-13T01:50:18;-5.20;99.90
19930;DHT22;10127;47.780;9.606;2022-12-13T01:52:46;-5.00;99.90
19930;DHT22;10127;47.780;9.606;2022-12-13T01:55:14;-4.90;99.90
19930;DHT22;10127;47.780;9.606;2022-12-13T01:57:41;-4.90;99.90
19930;DHT22;10127;47.780;9.606;2022-12-13T02:00:09;-5.00;99.90
19930;DHT22;10127;47.780;9.606;2022-12-13T02:02:35;-5.00;99.90
19930;DHT22;10127;47.780;9.606;2022-12-13T02:05:10;-5.10;99.90
19930;DHT22;10127;47.780;9.606;2022-12-13T02:07:40;-5.10;99.90
19930;DHT22;10127;47.780;9.606;2022-12-13T02:10:07;-5.10;99.90
19930;DHT22;10127;47.780;9.606;2022-12-13T02:12:34;-5.20;99.90
19930;DHT22;10127;47.780;9.606;2022-12-13T02:15:07;-5.20;99.90
19930;DHT22;10127;47.780;9.606;2022-12-13T02:23:40;-5.00;99.90
19930;DHT22;10127;47.780;9.606;2022-12-13T02:34:27;-5.10;99.90
19930;DHT22;10127;47.780;9.606;2022-12-13T02:37:24;-5.00;99.90
19930;DHT22;10127;47.780;9.606;2022-12-13T02:39:59;-5.10;99.90
19930;DHT22;10127;47.780;9.606;2022-12-13T02:42:33;-5.10;99.90
19930;DHT22;10127;47.780;9.606;2022-12-13T02:45:16;-5.20;99.90
19930;DHT22;10127;47.780;9.606;2022-12-13T02:47:43;-5.20;99.90
19930;DHT22;10127;47.780;9.606;2022-12-13T02:50:11;-5.20;99.90
19930;DHT22;10127;47.780;9.606;2022-12-13T03:13:29;-5.30;99.90
19930;DHT22;10127;47.780;9.606;2022-12-13T03:18:42;-5.50;99.90
19930;DHT22;10127;47.780;9.606;2022-12-13T03:21:09;-5.40;99.90
19930;DHT22;10127;47.780;9.606;2022-12-13T03:23:36;-5.40;99.90
19930;DHT22;10127;47.780;9.606;2022-12-13T03:26:09;-5.40;99.90
19930;DHT22;10127;47.780;9.606;2022-12-13T03:28:37;-5.40;99.90
19930;DHT22;10127;47.780;9.606;2022-12-13T03:31:04;-5.30;99.90
19930;DHT22;10127;47.780;9.606;2022-12-13T03:33:30;-5.50;99.90
19930;DHT22;10127;47.780;9.606;2022-12-13T03:35:55;-5.50;99.90
19930;DHT22;10127;47.780;9.606;2022-12-13T03:38:21;-5.40;99.90
19930;DHT22;10127;47.780;9.606;2022-12-13T03:40:47;-5.40;99.90
19930;DHT22;10127;47.780;9.606;2022-12-13T03:43:13;-5.40;99.90
19930;DHT22;10127;47.780;9.606;2022-12-13T03:45:39;-5.40;99.90
19930;DHT22;10127;47.780;9.606;2022-12-13T03:48:04;-5.30;99.90
19930;DHT22;10127;47.780;9.606;2022-12-13T03:50:30;-5.30;99.90
19930;DHT22;10127;47.780;9.606;2022-12-13T03:53:02;-5.20;99.90
19930;DHT22;10127;47.780;9.606;2022-12-13T03:55:28;-5.30;99.90
19930;DHT22;10127;47.780;9.606;2022-12-13T03:57:54;-5.30;99.90
19930;DHT22;10127;47.780;9.606;2022-12-13T04:00:20;-5.40;99.90
19930;DHT22;10127;47.780;9.606;2022-12-13T04:02:46;-5.40;99.90
19930;DHT22;10127;47.780;9.606;2022-12-13T04:05:11;-5.50;99.90
19930;DHT22;10127;47.780;9.606;2022-12-13T04:07:37;-5.50;99.90
19930;DHT22;10127;47.780;9.606;2022-12-13T04:10:03;-5.50;99.90
19930;DHT22;10127;47.780;9.606;2022-12-13T04:12:29;-5.50;99.90
19930;DHT22;10127;47.780;9.606;2022-12-13T04:15:13;-5.40;99.90
19930;DHT22;10127;47.780;9.606;2022-12-13T04:17:39;-5.50;99.90
19930;DHT22;10127;47.780;9.606;2022-12-13T04:20:05;-5.40;99.90
19930;DHT22;10127;47.780;9.606;2022-12-13T04:22:31;-5.40;99.90
19930;DHT22;10127;47.780;9.606;2022-12-13T04:24:56;-5.40;99.90
19930;DHT22;10127;47.780;9.606;2022-12-13T04:27:22;-5.40;99.90
19930;DHT22;10127;47.780;9.606;2022-12-13T04:29:47;-5.50;99.90
19930;DHT22;10127;47.780;9.606;2022-12-13T04:32:13;-5.50;99.90
19930;DHT22;10127;47.780;9.606;2022-12-13T04:34:38;-5.50;99.90
19930;DHT22;10127;47.780;9.606;2022-12-13T04:37:04;-5.50;99.90
19930;DHT22;10127;47.780;9.606;2022-12-13T04:39:30;-5.60;99.90
19930;DHT22;10127;47.780;9.606;2022-12-13T04:41:56;-5.50;99.90
19930;DHT22;10127;47.780;9.606;2022-12-13T04:44:21;-5.50;99.90
19930;DHT22;10127;47.780;9.606;2022-12-13T04:46:47;-5.50;99.90
19930;DHT22;10127;47.780;9.606;2022-12-13T04:49:12;-5.40;99.90
19930;DHT22;10127;47.780;9.606;2022-12-13T04:51:38;-5.50;99.90
19930;DHT22;10127;47.780;9.606;2022-12-13T04:54:03;-5.40;99.90
19930;DHT22;10127;47.780;9.606;2022-12-13T04:56:29;-5.50;99.90
19930;DHT22;10127;47.780;9.606;2022-12-13T04:58:55;-5.60;99.90
19930;DHT22;10127;47.780;9.606;2022-12-13T05:01:20;-5.70;99.90
19930;DHT22;10127;47.780;9.606;2022-12-13T05:03:46;-5.70;99.90
19930;DHT22;10127;47.780;9.606;2022-12-13T05:06:13;-5.70;99.90
19930;DHT22;10127;47.780;9.606;2022-12-13T05:08:39;-5.70;99.90
19930;DHT22;10127;47.780;9.606;2022-12-13T05:11:05;-5.60;99.90
19930;DHT22;10127;47.780;9.606;2022-12-13T05:13:32;-5.60;99.90
19930;DHT22;10127;47.780;9.606;2022-12-13T05:16:02;-5.80;99.90
19930;DHT22;10127;47.780;9.606;2022-12-13T05:18:29;-5.70;99.90
19930;DHT22;10127;47.780;9.606;2022-12-13T05:20:55;-5.80;99.90
19930;DHT22;10127;47.780;9.606;2022-12-13T05:23:23;-5.90;99.90
19930;DHT22;10127;47.780;9.606;2022-12-13T05:25:52;-5.90;99.90
19930;DHT22;10127;47.780;9.606;2022-12-13T05:28:17;-5.80;99.90
19930;DHT22;10127;47.780;9.606;2022-12-13T05:30:43;-5.80;99.90
19930;DHT22;10127;47.780;9.606;2022-12-13T05:33:09;-5.70;99.90
19930;DHT22;10127;47.780;9.606;2022-12-13T05:35:36;-5.70;99.90
19930;DHT22;10127;47.780;9.606;2022-12-13T05:38:02;-5.60;99.90
19930;DHT22;10127;47.780;9.606;2022-12-13T05:40:29;-5.70;99.90
19930;DHT22;10127;47.780;9.606;2022-12-13T05:42:55;-5.80;99.90
19930;DHT22;10127;47.780;9.606;2022-12-13T05:45:21;-5.90;99.90
19930;DHT22;10127;47.780;9.606;2022-12-13T05:47:47;-5.80;99.90
19930;DHT22;10127;47.780;9.606;2022-12-13T05:50:14;-5.70;99.90
19930;DHT22;10127;47.780;9.606;2022-12-13T05:52:41;-5.60;99.90
19930;DHT22;10127;47.780;9.606;2022-12-13T05:55:08;-5.60;99.90
19930;DHT22;10127;47.780;9.606;2022-12-13T05:57:34;-5.70;99.90
19930;DHT22;10127;47.780;9.606;2022-12-13T06:00:00;-5.70;99.90
19930;DHT22;10127;47.780;9.606;2022-12-13T06:02:25;-5.70;99.90
19930;DHT22;10127;47.780;9.606;2022-12-13T06:04:51;-5.60;99.90
19930;DHT22;10127;47.780;9.606;2022-12-13T06:07:16;-5.60;99.90
19930;DHT22;10127;47.780;9.606;2022-12-13T06:09:42;-5.60;99.90
19930;DHT22;10127;47.780;9.606;2022-12-13T06:12:08;-5.60;99.90
19930;DHT22;10127;47.780;9.606;2022-12-13T06:14:34;-5.60;99.90
19930;DHT22;10127;47.780;9.606;2022-12-13T06:17:00;-5.50;99.90
19930;DHT22;10127;47.780;9.606;2022-12-13T06:19:26;-5.50;99.90
19930;DHT22;10127;47.780;9.606;2022-12-13T06:21:52;-5.70;99.90
19930;DHT22;10127;47.780;9.606;2022-12-13T06:24:21;-5.60;99.90
19930;DHT22;10127;47.780;9.606;2022-12-13T06:26:48;-4.80;99.90
19930;DHT22;10127;47.780;9.606;2022-12-13T06:29:14;-4.70;99.90
19930;DHT22;10127;47.780;9.606;2022-12-13T06:31:40;-5.20;99.90
19930;DHT22;10127;47.780;9.606;2022-12-13T06:34:06;-4.60;99.90
19930;DHT22;10127;47.780;9.606;2022-12-13T06:36:32;-4.30;99.90
19930;DHT22;10127;47.780;9.606;2022-12-13T06:39:04;-4.90;99.90
19930;DHT22;10127;47.780;9.606;2022-12-13T06:41:30;-5.20;99.90
19930;DHT22;10127;47.780;9.606;2022-12-13T06:43:55;-5.50;99.90
19930;DHT22;10127;47.780;9.606;2022-12-13T06:46:21;-5.70;99.90
19930;DHT22;10127;47.780;9.606;2022-12-13T06:48:47;-5.70;99.90
19930;DHT22;10127;47.780;9.606;2022-12-13T06:51:13;-5.90;99.90
19930;DHT22;10127;47.780;9.606;2022-12-13T06:53:39;-5.80;99.90
19930;DHT22;10127;47.780;9.606;2022-12-13T06:56:11;-6.00;99.90
19930;DHT22;10127;47.780;9.606;2022-12-13T06:58:37;-5.70;99.90
19930;DHT22;10127;47.780;9.606;2022-12-13T07:01:08;-5.90;99.90
19930;DHT22;10127;47.780;9.606;2022-12-13T07:03:35;-6.00;99.90
19930;DHT22;10127;47.780;9.606;2022-12-13T07:06:13;-6.10;99.90
19930;DHT22;10127;47.780;9.606;2022-12-13T07:08:40;-6.30;99.90
19930;DHT22;10127;47.780;9.606;2022-12-13T07:11:05;-6.30;99.90
19930;DHT22;10127;47.780;9.606;2022-12-13T07:13:31;-6.20;99.90
19930;DHT22;10127;47.780;9.606;2022-12-13T07:15:58;-6.20;99.90
19930;DHT22;10127;47.780;9.606;2022-12-13T07:18:24;-6.30;99.90
19930;DHT22;10127;47.780;9.606;2022-12-13T07:20:50;-6.30;99.90
19930;DHT22;10127;47.780;9.606;2022-12-13T07:23:15;-6.30;99.90
19930;DHT22;10127;47.780;9.606;2022-12-13T07:25:41;-6.30;99.90
19930;DHT22;10127;47.780;9.606;2022-12-13T07:28:07;-6.40;99.90
19930;DHT22;10127;47.780;9.606;2022-12-13T07:30:38;-6.50;99.90
19930;DHT22;10127;47.780;9.606;2022-12-13T07:33:04;-6.40;99.90
19930;DHT22;10127;47.780;9.606;2022-12-13T07:35:31;-6.40;99.90
19930;DHT22;10127;47.780;9.606;2022-12-13T07:37:57;-6.50;99.90
19930;DHT22;10127;47.780;9.606;2022-12-13T07:40:24;-6.40;99.90
19930;DHT22;10127;47.780;9.606;2022-12-13T07:42:50;-6.50;99.90
19930;DHT22;10127;47.780;9.606;2022-12-13T07:45:16;-6.50;99.90
19930;DHT22;10127;47.780;9.606;2022-12-13T07:47:42;-6.50;99.90
19930;DHT22;10127;47.780;9.606;2022-12-13T07:50:08;-6.30;99.90
19930;DHT22;10127;47.780;9.606;2022-12-13T07:52:33;-5.90;99.90
19930;DHT22;10127;47.780;9.606;2022-12-13T07:54:59;-5.70;99.90
19930;DHT22;10127;47.780;9.606;2022-12-13T07:57:25;-5.50;99.90
19930;DHT22;10127;47.780;9.606;2022-12-13T07:59:51;-5.00;99.90
19930;DHT22;10127;47.780;9.606;2022-12-13T08:02:16;-5.00;99.90
19930;DHT22;10127;47.780;9.606;2022-12-13T08:04:42;-5.20;99.90
19930;DHT22;10127;47.780;9.606;2022-12-13T08:07:09;-5.40;99.90
19930;DHT22;10127;47.780;9.606;2022-12-13T08:09:35;-5.70;99.90
19930;DHT22;10127;47.780;9.606;2022-12-13T08:12:00;-5.80;99.90
19930;DHT22;10127;47.780;9.606;2022-12-13T08:14:26;-5.60;99.90
19930;DHT22;10127;47.780;9.606;2022-12-13T08:16:52;-4.90;99.90
19930;DHT22;10127;47.780;9.606;2022-12-13T08:19:17;-4.30;99.90
19930;DHT22;10127;47.780;9.606;2022-12-13T08:21:43;-4.00;99.90
19930;DHT22;10127;47.780;9.606;2022-12-13T08:24:09;-4.60;99.90
19930;DHT22;10127;47.780;9.606;2022-12-13T08:26:35;-4.90;99.90
19930;DHT22;10127;47.780;9.606;2022-12-13T08:29:01;-5.00;99.90
19930;DHT22;10127;47.780;9.606;2022-12-13T08:31:27;-5.20;99.90
19930;DHT22;10127;47.780;9.606;2022-12-13T08:33:52;-5.20;99.90
19930;DHT22;10127;47.780;9.606;2022-12-13T08:36:18;-5.00;99.90
19930;DHT22;10127;47.780;9.606;2022-12-13T08:38:44;-5.00;99.90
19930;DHT22;10127;47.780;9.606;2022-12-13T08:41:10;-4.90;99.90
19930;DHT22;10127;47.780;9.606;2022-12-13T08:43:36;-4.90;99.90
19930;DHT22;10127;47.780;9.606;2022-12-13T08:46:03;-4.90;99.90
19930;DHT22;10127;47.780;9.606;2022-12-13T08:48:28;-4.70;99.90
19930;DHT22;10127;47.780;9.606;2022-12-13T08:51:02;-4.60;99.90
19930;DHT22;10127;47.780;9.606;2022-12-13T08:53:28;-4.70;99.90
19930;DHT22;10127;47.780;9.606;2022-12-13T08:55:59;-4.50;99.90
19930;DHT22;10127;47.780;9.606;2022-12-13T08:58:24;-4.30;99.90
19930;DHT22;10127;47.780;9.606;2022-12-13T09:00:50;-4.30;99.90
19930;DHT22;10127;47.780;9.606;2022-12-13T09:03:16;-4.30;99.90
19930;DHT22;10127;47.780;9.606;2022-12-13T09:05:41;-4.40;99.90
19930;DHT22;10127;47.780;9.606;2022-12-13T09:08:07;-4.50;99.90
19930;DHT22;10127;47.780;9.606;2022-12-13T09:10:33;-4.50;99.90
19930;DHT22;10127;47.780;9.606;2022-12-13T09:12:59;-4.30;99.90
19930;DHT22;10127;47.780;9.606;2022-12-13T09:15:26;-3.90;99.90
19930;DHT22;10127;47.780;9.606;2022-12-13T09:17:51;-3.70;99.90
19930;DHT22;10127;47.780;9.606;2022-12-13T09:20:17;-3.50;99.90
19930;DHT22;10127;47.780;9.606;2022-12-13T09:22:43;-3.20;99.90
19930;DHT22;10127;47.780;9.606;2022-12-13T09:25:08;-3.20;99.90
19930;DHT22;10127;47.780;9.606;2022-12-13T09:27:34;-3.00;99.90
19930;DHT22;10127;47.780;9.606;2022-12-13T09:30:00;-2.70;99.90
19930;DHT22;10127;47.780;9.606;2022-12-13T09:32:26;-3.20;99.90
19930;DHT22;10127;47.780;9.606;2022-12-13T09:34:53;-3.00;99.90
19930;DHT22;10127;47.780;9.606;2022-12-13T09:37:18;-3.00;99.90
19930;DHT22;10127;47.780;9.606;2022-12-13T09:39:44;-3.10;99.90
19930;DHT22;10127;47.780;9.606;2022-12-13T09:42:23;-3.20;99.90
19930;DHT22;10127;47.780;9.606;2022-12-13T09:44:53;-3.20;99.90
19930;DHT22;10127;47.780;9.606;2022-12-13T09:47:38;-2.60;99.90
19930;DHT22;10127;47.780;9.606;2022-12-13T09:50:07;-2.60;99.90
19930;DHT22;10127;47.780;9.606;2022-12-13T09:52:39;-2.70;99.90
19930;DHT22;10127;47.780;9.606;2022-12-13T09:55:27;-2.50;99.90
19930;DHT22;10127;47.780;9.606;2022-12-13T09:57:54;-2.30;99.90
19930;DHT22;10127;47.780;9.606;2022-12-13T10:00:22;-2.30;99.80
19930;DHT22;10127;47.780;9.606;2022-12-13T10:02:54;-2.10;99.90
19930;DHT22;10127;47.780;9.606;2022-12-13T10:05:35;-1.90;99.90
19930;DHT22;10127;47.780;9.606;2022-12-13T10:08:37;-2.10;99.30
19930;DHT22;10127;47.780;9.606;2022-12-13T10:11:04;-2.20;99.90
19930;DHT22;10127;47.780;9.606;2022-12-13T10:13:40;-1.70;99.90
19930;DHT22;10127;47.780;9.606;2022-12-13T10:16:17;-1.50;99.60
19930;DHT22;10127;47.780;9.606;2022-12-13T10:18:43;-1.80;98.70
19930;DHT22;10127;47.780;9.606;2022-12-13T10:21:22;-1.70;99.60
19930;DHT22;10127;47.780;9.606;2022-12-13T10:23:51;-1.80;99.40
19930;DHT22;10127;47.780;9.606;2022-12-13T10:26:16;-1.80;99.40
19930;DHT22;10127;47.780;9.606;2022-12-13T10:28:43;-2.00;99.40
19930;DHT22;10127;47.780;9.606;2022-12-13T10:31:18;-2.10;99.40
19930;DHT22;10127;47.780;9.606;2022-12-13T10:33:54;-2.10;99.80
19930;DHT22;10127;47.780;9.606;2022-12-13T10:36:34;-2.40;99.80
19930;DHT22;10127;47.780;9.606;2022-12-13T10:39:03;-2.10;99.90
19930;DHT22;10127;47.780;9.606;2022-12-13T10:44:21;-2.20;99.90
19930;DHT22;10127;47.780;9.606;2022-12-13T10:46:53;-1.90;99.90
19930;DHT22;10127;47.780;9.606;2022-12-13T10:49:25;-1.70;99.40
19930;DHT22;10127;47.780;9.606;2022-12-13T10:51:52;-1.60;99.40
19930;DHT22;10127;47.780;9.606;2022-12-13T10:54:29;-1.50;99.40
19930;DHT22;10127;47.780;9.606;2022-12-13T10:56:56;-1.30;99.60
19930;DHT22;10127;47.780;9.606;2022-12-13T10:59:33;-1.30;98.70
19930;DHT22;10127;47.780;9.606;2022-12-13T11:04:44;-1.50;99.00
19930;DHT22;10127;47.780;9.606;2022-12-13T11:07:31;-1.70;99.90
19930;DHT22;10127;47.780;9.606;2022-12-13T11:10:14;-1.80;99.90
19930;DHT22;10127;47.780;9.606;2022-12-13T11:12:40;-1.60;99.20
19930;DHT22;10127;47.780;9.606;2022-12-13T11:15:12;-1.40;99.50
19930;DHT22;10127;47.780;9.606;2022-12-13T11:17:47;-1.50;99.50
19930;DHT22;10127;47.780;9.606;2022-12-13T11:20:20;-1.20;99.00
19930;DHT22;10127;47.780;9.606;2022-12-13T11:22:46;-1.20;99.50
19930;DHT22;10127;47.780;9.606;2022-12-13T11:25:25;-1.50;99.40
19930;DHT22;10127;47.780;9.606;2022-12-13T11:30:57;-1.40;99.90
19930;DHT22;10127;47.780;9.606;2022-12-13T11:39:05;-1.30;99.10
19930;DHT22;10127;47.780;9.606;2022-12-13T11:41:49;-1.20;99.70
19930;DHT22;10127;47.780;9.606;2022-12-13T11:44:42;-1.30;99.40
19930;DHT22;10127;47.780;9.606;2022-12-13T11:47:17;-0.70;99.20
19930;DHT22;10127;47.780;9.606;2022-12-13T11:49:45;-0.70;98.20
19930;DHT22;10127;47.780;9.606;2022-12-13T11:52:18;-0.90;98.60
19930;DHT22;10127;47.780;9.606;2022-12-13T11:54:56;-0.70;98.80
19930;DHT22;10127;47.780;9.606;2022-12-13T11:57:30;-0.70;99.00
19930;DHT22;10127;47.780;9.606;2022-12-13T12:00:06;-1.20;98.70
19930;DHT22;10127;47.780;9.606;2022-12-13T12:02:43;-1.50;99.30
19930;DHT22;10127;47.780;9.606;2022-12-13T12:07:52;-1.60;99.90
19930;DHT22;10127;47.780;9.606;2022-12-13T12:10:40;-1.40;99.60
19930;DHT22;10127;47.780;9.606;2022-12-13T12:13:28;-1.50;99.90
19930;DHT22;10127;47.780;9.606;2022-12-13T12:16:15;-1.50;99.60
19930;DHT22;10127;47.780;9.606;2022-12-13T12:18:45;-1.40;99.90
19930;DHT22;10127;47.780;9.606;2022-12-13T12:21:33;-1.40;99.60
19930;DHT22;10127;47.780;9.606;2022-12-13T12:32:06;-0.80;99.30
19930;DHT22;10127;47.780;9.606;2022-12-13T12:38:20;-0.90;98.80
19930;DHT22;10127;47.780;9.606;2022-12-13T12:40:56;-1.10;98.80
19930;DHT22;10127;47.780;9.606;2022-12-13T12:43:30;-0.70;98.70
19930;DHT22;10127;47.780;9.606;2022-12-13T12:46:29;-0.70;98.50
19930;DHT22;10127;47.780;9.606;2022-12-13T13:05:05;-1.00;99.50
19930;DHT22;10127;47.780;9.606;2022-12-13T13:07:39;-0.90;99.00
19930;DHT22;10127;47.780;9.606;2022-12-13T13:10:07;-0.60;99.40
19930;DHT22;10127;47.780;9.606;2022-12-13T13:12:39;-0.60;98.40
19930;DHT22;10127;47.780;9.606;2022-12-13T13:18:06;-0.70;98.90
19930;DHT22;10127;47.780;9.606;2022-12-13T13:21:23;-0.70;98.60
19930;DHT22;10127;47.780;9.606;2022-12-13T13:24:15;-0.50;98.70
19930;DHT22;10127;47.780;9.606;2022-12-13T13:26:49;-0.70;98.40
19930;DHT22;10127;47.780;9.606;2022-12-13T13:34:45;-0.60;98.30
19930;DHT22;10127;47.780;9.606;2022-12-13T13:43:06;-0.80;99.10
19930;DHT22;10127;47.780;9.606;2022-12-13T13:46:09;-0.80;98.80
19930;DHT22;10127;47.780;9.606;2022-12-13T13:49:00;-1.00;98.90
19930;DHT22;10127;47.780;9.606;2022-12-13T13:57:31;-0.60;99.70
19930;DHT22;10127;47.780;9.606;2022-12-13T14:05:55;-1.00;98.60
19930;DHT22;10127;47.780;9.606;2022-12-13T14:11:40;-1.30;99.00
19930;DHT22;10127;47.780;9.606;2022-12-13T14:14:33;-1.10;99.40
19930;DHT22;10127;47.780;9.606;2022-12-13T14:17:17;-1.10;98.60
19930;DHT22;10127;47.780;9.606;2022-12-13T14:22:44;-1.20;98.80
19930;DHT22;10127;47.780;9.606;2022-12-13T14:28:17;-0.70;98.90
19930;DHT22;10127;47.780;9.606;2022-12-13T14:30:45;-0.80;98.70
19930;DHT22;10127;47.780;9.606;2022-12-13T14:33:21;-0.80;98.60
19930;DHT22;10127;47.780;9.606;2022-12-13T14:36:06;-0.90;99.00
19930;DHT22;10127;47.780;9.606;2022-12-13T14:38:37;-1.10;98.80
19930;DHT22;10127;47.780;9.606;2022-12-13T14:41:03;-1.10;99.00
19930;DHT22;10127;47.780;9.606;2022-12-13T14:43:32;-1.40;99.20
19930;DHT22;10127;47.780;9.606;2022-12-13T14:46:04;-1.10;99.60
19930;DHT22;10127;47.780;9.606;2022-12-13T14:48:35;-0.80;99.40
19930;DHT22;10127;47.780;9.606;2022-12-13T14:51:02;-0.80;98.80
19930;DHT22;10127;47.780;9.606;2022-12-13T14:53:33;-1.00;99.10
19930;DHT22;10127;47.780;9.606;2022-12-13T14:56:07;-1.10;99.30
19930;DHT22;10127;47.780;9.606;2022-12-13T14:58:34;-1.10;99.70
19930;DHT22;10127;47.780;9.606;2022-12-13T15:01:03;-1.10;99.60
19930;DHT22;10127;47.780;9.606;2022-12-13T15:03:28;-1.20;99.60
19930;DHT22;10127;47.780;9.606;2022-12-13T15:05:57;-1.20;99.90
19930;DHT22;10127;47.780;9.606;2022-12-13T15:08:23;-1.20;99.90
19930;DHT22;10127;47.780;9.606;2022-12-13T15:10:55;-1.20;99.90
19930;DHT22;10127;47.780;9.606;2022-12-13T15:16:30;-1.10;99.90
19930;DHT22;10127;47.780;9.606;2022-12-13T15:19:15;-0.80;99.90
19930;DHT22;10127;47.780;9.606;2022-12-13T15:21:56;-1.20;99.90
19930;DHT22;10127;47.780;9.606;2022-12-13T15:24:25;-1.20;99.90
19930;DHT22;10127;47.780;9.606;2022-12-13T15:26:54;-1.10;99.90
19930;DHT22;10127;47.780;9.606;2022-12-13T15:29:21;-1.20;99.90
19930;DHT22;10127;47.780;9.606;2022-12-13T15:31:48;-1.10;99.90
19930;DHT22;10127;47.780;9.606;2022-12-13T15:34:20;-0.90;99.90
19930;DHT22;10127;47.780;9.606;2022-12-13T15:36:47;-0.80;99.90
19930;DHT22;10127;47.780;9.606;2022-12-13T15:39:13;-0.60;99.90
19930;DHT22;10127;47.780;9.606;2022-12-13T15:41:47;-0.70;99.90
19930;DHT22;10127;47.780;9.606;2022-12-13T15:44:22;-0.80;99.90
19930;DHT22;10127;47.780;9.606;2022-12-13T15:46:51;-0.90;99.70
19930;DHT22;10127;47.780;9.606;2022-12-13T15:49:22;-1.00;99.90
19930;DHT22;10127;47.780;9.606;2022-12-13T15:51:57;-1.00;99.90
19930;DHT22;10127;47.780;9.606;2022-12-13T15:54:24;-0.90;99.90
19930;DHT22;10127;47.780;9.606;2022-12-13T15:59:39;-1.10;99.90
19930;DHT22;10127;47.780;9.606;2022-12-13T16:02:24;-1.20;99.90
19930;DHT22;10127;47.780;9.606;2022-12-13T16:04:50;-1.20;99.90
19930;DHT22;10127;47.780;9.606;2022-12-13T16:07:26;-1.30;99.90
19930;DHT22;10127;47.780;9.606;2022-12-13T16:09:54;-1.10;99.90
19930;DHT22;10127;47.780;9.606;2022-12-13T16:12:25;-1.20;99.90
19930;DHT22;10127;47.780;9.606;2022-12-13T16:15:16;-1.20;99.90
19930;DHT22;10127;47.780;9.606;2022-12-13T16:17:42;-1.30;99.90
19930;DHT22;10127;47.780;9.606;2022-12-13T16:20:13;-1.40;99.90
19930;DHT22;10127;47.780;9.606;2022-12-13T16:22:40;-1.40;99.90
19930;DHT22;10127;47.780;9.606;2022-12-13T16:25:10;-1.40;99.90
19930;DHT22;10127;47.780;9.606;2022-12-13T16:27:36;-1.50;99.90
19930;DHT22;10127;47.780;9.606;2022-12-13T16:30:25;-1.50;99.90
19930;DHT22;10127;47.780;9.606;2022-12-13T16:32:52;-1.40;99.90
19930;DHT22;10127;47.780;9.606;2022-12-13T16:35:18;-1.20;99.90
19930;DHT22;10127;47.780;9.606;2022-12-13T16:37:44;-1.20;99.90
19930;DHT22;10127;47.780;9.606;2022-12-13T16:40:30;-1.20;99.90
19930;DHT22;10127;47.780;9.606;2022-12-13T16:43:02;-1.40;99.90
19930;DHT22;10127;47.780;9.606;2022-12-13T16:48:12;-1.50;99.90
19930;DHT22;10127;47.780;9.606;2022-12-13T16:50:42;-1.40;99.90
19930;DHT22;10127;47.780;9.606;2022-12-13T16:53:09;-1.30;99.90
19930;DHT22;10127;47.780;9.606;2022-12-13T16:55:35;-1.10;99.90
19930;DHT22;10127;47.780;9.606;2022-12-13T16:58:03;-1.20;99.90
19930;DHT22;10127;47.780;9.606;2022-12-13T17:00:29;-1.20;99.90
19930;DHT22;10127;47.780;9.606;2022-12-13T17:02:57;-1.20;99.90
19930;DHT22;10127;47.780;9.606;2022-12-13T17:05:24;-1.20;99.90
19930;DHT22;10127;47.780;9.606;2022-12-13T17:07:50;-1.10;99.90
19930;DHT22;10127;47.780;9.606;2022-12-13T17:10:16;-1.10;99.90
19930;DHT22;10127;47.780;9.606;2022-12-13T17:12:42;-1.20;99.90
19930;DHT22;10127;47.780;9.606;2022-12-13T17:15:09;-1.20;99.90
19930;DHT22;10127;47.780;9.606;2022-12-13T17:17:36;-1.10;99.90
19930;DHT22;10127;47.780;9.606;2022-12-13T17:20:04;-1.20;99.90
19930;DHT22;10127;47.780;9.606;2022-12-13T17:22:29;-1.50;99.90
19930;DHT22;10127;47.780;9.606;2022-12-13T17:24:56;-1.30;99.90
19930;DHT22;10127;47.780;9.606;2022-12-13T17:27:21;-1.20;99.90
19930;DHT22;10127;47.780;9.606;2022-12-13T17:29:47;-1.20;99.90
19930;DHT22;10127;47.780;9.606;2022-12-13T17:32:13;-1.10;99.90
19930;DHT22;10127;47.780;9.606;2022-12-13T17:34:38;-1.10;99.90
19930;DHT22;10127;47.780;9.606;2022-12-13T17:37:04;-1.00;99.90
19930;DHT22;10127;47.780;9.606;2022-12-13T17:39:30;-1.10;99.90
19930;DHT22;10127;47.780;9.606;2022-12-13T17:41:56;-1.30;99.90
19930;DHT22;10127;47.780;9.606;2022-12-13T17:44:23;-1.30;99.90
19930;DHT22;10127;47.780;9.606;2022-12-13T17:46:49;-1.40;99.90
19930;DHT22;10127;47.780;9.606;2022-12-13T17:49:15;-1.40;99.90
19930;DHT22;10127;47.780;9.606;2022-12-13T17:51:40;-1.60;99.90